Main page
METAR-TAF:

METAR-TAF

Airports :

Huron County Memorial Airport

Bad Axe, Michigan, United States

latitude: 43-46-51N, longitude: 082-59-08W, elevation: 233 m

Current weather observation

The report was made 39 minutes ago, at 19:55 UTC
Wind 4 kt from the East/Northeast
Temperature 19°C
Humidity 40%
Pressure 1022 hPa
Visibility: 16.1 km
Clear sky

METAR: KBAX 151955Z AUTO 06004KT 10SM CLR 19/05 A3019 RMK AO2 T01910047

Time: 16:34 (20:34 UTC)


TAF: missing

Weather observations and forecasts of more than 4000 airports (METAR and TAF reports).

The available stations are represented by yellow and red dots on the map.

Hover mouse over dot to see the name of the station.

Then click to see weather observations and forecasts.

To change the map : click on the green buttons with a black cross to zoom in, on the green button with a dash to zoom out, or on the green arrows for adjacent maps.


METAR-TAF: